sensor_id;sensor_type;location;lat;lon;timestamp;temperature;humidity
14099;DHT22;7126;48.458;7.930;2022-08-01T00:00:34;23.10;99.90
14099;DHT22;7126;48.458;7.930;2022-08-01T00:02:59;23.20;99.90
14099;DHT22;7126;48.458;7.930;2022-08-01T00:05:25;23.30;99.90
14099;DHT22;7126;48.458;7.930;2022-08-01T00:07:51;23.30;99.90
14099;DHT22;7126;48.458;7.930;2022-08-01T00:10:17;23.30;99.90
14099;DHT22;7126;48.458;7.930;2022-08-01T00:12:44;23.30;99.90
14099;DHT22;7126;48.458;7.930;2022-08-01T00:15:12;23.30;99.90
14099;DHT22;7126;48.458;7.930;2022-08-01T00:17:39;23.40;99.90
14099;DHT22;7126;48.458;7.930;2022-08-01T00:20:09;23.40;99.90
14099;DHT22;7126;48.458;7.930;2022-08-01T00:22:35;23.30;99.90
14099;DHT22;7126;48.458;7.930;2022-08-01T00:25:00;23.30;99.90
14099;DHT22;7126;48.458;7.930;2022-08-01T00:27:26;23.20;99.90
14099;DHT22;7126;48.458;7.930;2022-08-01T00:29:52;23.10;99.90
14099;DHT22;7126;48.458;7.930;2022-08-01T00:32:18;22.80;99.90
14099;DHT22;7126;48.458;7.930;2022-08-01T00:34:44;22.60;99.90
14099;DHT22;7126;48.458;7.930;2022-08-01T00:37:09;22.50;99.90
14099;DHT22;7126;48.458;7.930;2022-08-01T00:39:35;22.50;99.90
14099;DHT22;7126;48.458;7.930;2022-08-01T00:42:06;22.50;99.90
14099;DHT22;7126;48.458;7.930;2022-08-01T00:44:32;22.40;99.90
14099;DHT22;7126;48.458;7.930;2022-08-01T00:46:58;22.40;99.90
14099;DHT22;7126;48.458;7.930;2022-08-01T00:49:23;22.40;99.90
14099;DHT22;7126;48.458;7.930;2022-08-01T00:51:49;22.40;99.90
14099;DHT22;7126;48.458;7.930;2022-08-01T00:54:15;22.30;99.90
14099;DHT22;7126;48.458;7.930;2022-08-01T00:56:41;22.30;99.90
14099;DHT22;7126;48.458;7.930;2022-08-01T00:59:07;22.30;99.90
14099;DHT22;7126;48.458;7.930;2022-08-01T01:01:33;22.30;99.90
14099;DHT22;7126;48.458;7.930;2022-08-01T01:04:00;22.30;99.90
14099;DHT22;7126;48.458;7.930;2022-08-01T01:15:17;21.90;99.90
14099;DHT22;7126;48.458;7.930;2022-08-01T01:18:03;21.90;99.90
14099;DHT22;7126;48.458;7.930;2022-08-01T01:20:35;21.90;99.90
14099;DHT22;7126;48.458;7.930;2022-08-01T01:23:24;21.90;99.90
14099;DHT22;7126;48.458;7.930;2022-08-01T01:26:05;21.90;99.90
14099;DHT22;7126;48.458;7.930;2022-08-01T01:31:25;21.90;99.90
14099;DHT22;7126;48.458;7.930;2022-08-01T01:33:53;21.80;99.90
14099;DHT22;7126;48.458;7.930;2022-08-01T01:36:21;21.80;99.90
14099;DHT22;7126;48.458;7.930;2022-08-01T01:38:48;21.80;99.90
14099;DHT22;7126;48.458;7.930;2022-08-01T01:41:17;21.80;99.90
14099;DHT22;7126;48.458;7.930;2022-08-01T01:43:45;21.70;99.90
14099;DHT22;7126;48.458;7.930;2022-08-01T01:46:12;21.70;99.90
14099;DHT22;7126;48.458;7.930;2022-08-01T01:48:43;21.70;99.90
14099;DHT22;7126;48.458;7.930;2022-08-01T01:51:11;21.70;99.90
14099;DHT22;7126;48.458;7.930;2022-08-01T01:53:37;21.60;99.90
14099;DHT22;7126;48.458;7.930;2022-08-01T01:56:03;21.60;99.90
14099;DHT22;7126;48.458;7.930;2022-08-01T01:58:31;21.70;99.90
14099;DHT22;7126;48.458;7.930;2022-08-01T02:00:58;21.70;99.90
14099;DHT22;7126;48.458;7.930;2022-08-01T02:03:25;21.70;99.90
14099;DHT22;7126;48.458;7.930;2022-08-01T02:05:53;21.60;99.90
14099;DHT22;7126;48.458;7.930;2022-08-01T02:08:20;21.60;99.90
14099;DHT22;7126;48.458;7.930;2022-08-01T02:10:50;21.50;99.90
14099;DHT22;7126;48.458;7.930;2022-08-01T02:13:38;21.50;99.90
14099;DHT22;7126;48.458;7.930;2022-08-01T02:16:04;21.40;99.90
14099;DHT22;7126;48.458;7.930;2022-08-01T02:18:31;21.40;99.90
14099;DHT22;7126;48.458;7.930;2022-08-01T02:20:59;21.30;99.90
14099;DHT22;7126;48.458;7.930;2022-08-01T02:23:28;21.20;99.90
14099;DHT22;7126;48.458;7.930;2022-08-01T02:25:55;21.20;99.90
14099;DHT22;7126;48.458;7.930;2022-08-01T02:28:25;21.20;99.90
14099;DHT22;7126;48.458;7.930;2022-08-01T02:30:56;21.20;99.90
14099;DHT22;7126;48.458;7.930;2022-08-01T02:33:27;21.20;99.90
14099;DHT22;7126;48.458;7.930;2022-08-01T02:35:58;21.30;99.90
14099;DHT22;7126;48.458;7.930;2022-08-01T02:38:27;21.20;99.90
14099;DHT22;7126;48.458;7.930;2022-08-01T02:40:56;21.20;99.90
14099;DHT22;7126;48.458;7.930;2022-08-01T02:43:25;21.20;99.90
14099;DHT22;7126;48.458;7.930;2022-08-01T02:45:54;21.20;99.90
14099;DHT22;7126;48.458;7.930;2022-08-01T02:48:21;21.30;99.90
14099;DHT22;7126;48.458;7.930;2022-08-01T02:50:49;21.30;99.90
14099;DHT22;7126;48.458;7.930;2022-08-01T02:53:19;21.20;99.90
14099;DHT22;7126;48.458;7.930;2022-08-01T02:55:46;21.30;99.90
14099;DHT22;7126;48.458;7.930;2022-08-01T02:58:14;21.20;99.90
14099;DHT22;7126;48.458;7.930;2022-08-01T03:00:42;21.10;99.90
14099;DHT22;7126;48.458;7.930;2022-08-01T03:03:09;21.20;99.90
14099;DHT22;7126;48.458;7.930;2022-08-01T03:05:36;21.10;99.90
14099;DHT22;7126;48.458;7.930;2022-08-01T03:08:03;21.00;99.90
14099;DHT22;7126;48.458;7.930;2022-08-01T03:10:30;21.10;99.90
14099;DHT22;7126;48.458;7.930;2022-08-01T03:12:57;21.00;99.90
14099;DHT22;7126;48.458;7.930;2022-08-01T03:15:25;21.00;99.90
14099;DHT22;7126;48.458;7.930;2022-08-01T03:17:53;21.10;99.90
14099;DHT22;7126;48.458;7.930;2022-08-01T03:20:21;21.10;99.90
14099;DHT22;7126;48.458;7.930;2022-08-01T03:22:50;21.00;99.90
14099;DHT22;7126;48.458;7.930;2022-08-01T03:25:18;21.00;99.90
14099;DHT22;7126;48.458;7.930;2022-08-01T03:27:50;21.00;99.90
14099;DHT22;7126;48.458;7.930;2022-08-01T03:30:17;20.90;99.90
14099;DHT22;7126;48.458;7.930;2022-08-01T03:32:43;20.90;99.90
14099;DHT22;7126;48.458;7.930;2022-08-01T03:35:09;21.00;99.90
14099;DHT22;7126;48.458;7.930;2022-08-01T03:37:47;21.00;99.90
14099;DHT22;7126;48.458;7.930;2022-08-01T03:40:23;20.90;99.90
14099;DHT22;7126;48.458;7.930;2022-08-01T03:42:56;21.00;99.90
14099;DHT22;7126;48.458;7.930;2022-08-01T03:45:25;21.00;99.90
14099;DHT22;7126;48.458;7.930;2022-08-01T03:47:59;21.00;99.90
14099;DHT22;7126;48.458;7.930;2022-08-01T03:50:50;21.00;99.90
14099;DHT22;7126;48.458;7.930;2022-08-01T03:53:23;21.10;99.90
14099;DHT22;7126;48.458;7.930;2022-08-01T03:55:50;21.10;99.90
14099;DHT22;7126;48.458;7.930;2022-08-01T03:58:17;21.00;99.90
14099;DHT22;7126;48.458;7.930;2022-08-01T04:00:43;20.90;99.90
14099;DHT22;7126;48.458;7.930;2022-08-01T04:03:10;20.90;99.90
14099;DHT22;7126;48.458;7.930;2022-08-01T04:05:37;20.90;99.90
14099;DHT22;7126;48.458;7.930;2022-08-01T04:08:05;20.80;99.90
14099;DHT22;7126;48.458;7.930;2022-08-01T04:10:31;20.90;99.90
14099;DHT22;7126;48.458;7.930;2022-08-01T04:12:57;20.90;99.90
14099;DHT22;7126;48.458;7.930;2022-08-01T04:15:22;20.90;99.90
14099;DHT22;7126;48.458;7.930;2022-08-01T04:17:49;20.90;99.90
14099;DHT22;7126;48.458;7.930;2022-08-01T04:20:15;20.80;99.90
14099;DHT22;7126;48.458;7.930;2022-08-01T04:22:41;20.80;99.90
14099;DHT22;7126;48.458;7.930;2022-08-01T04:25:13;20.70;99.90
14099;DHT22;7126;48.458;7.930;2022-08-01T04:27:43;20.60;99.90
14099;DHT22;7126;48.458;7.930;2022-08-01T04:30:11;20.50;99.90
14099;DHT22;7126;48.458;7.930;2022-08-01T04:32:38;20.40;99.90
14099;DHT22;7126;48.458;7.930;2022-08-01T04:35:07;20.40;99.90
14099;DHT22;7126;48.458;7.930;2022-08-01T04:37:36;20.40;99.90
14099;DHT22;7126;48.458;7.930;2022-08-01T04:40:04;20.40;99.90
14099;DHT22;7126;48.458;7.930;2022-08-01T04:42:34;20.50;99.90
14099;DHT22;7126;48.458;7.930;2022-08-01T04:45:00;20.40;99.90
14099;DHT22;7126;48.458;7.930;2022-08-01T04:47:26;20.40;99.90
14099;DHT22;7126;48.458;7.930;2022-08-01T04:49:52;20.50;99.90
14099;DHT22;7126;48.458;7.930;2022-08-01T04:52:19;20.60;99.90
14099;DHT22;7126;48.458;7.930;2022-08-01T04:54:45;20.60;99.90
14099;DHT22;7126;48.458;7.930;2022-08-01T04:57:12;20.70;99.90
14099;DHT22;7126;48.458;7.930;2022-08-01T04:59:40;20.70;99.90
14099;DHT22;7126;48.458;7.930;2022-08-01T05:02:14;20.70;99.90
14099;DHT22;7126;48.458;7.930;2022-08-01T05:04:41;20.70;99.90
14099;DHT22;7126;48.458;7.930;2022-08-01T05:07:07;20.80;99.90
14099;DHT22;7126;48.458;7.930;2022-08-01T05:09:33;20.80;99.90
14099;DHT22;7126;48.458;7.930;2022-08-01T05:12:00;20.70;99.90
14099;DHT22;7126;48.458;7.930;2022-08-01T05:14:27;20.80;99.90
14099;DHT22;7126;48.458;7.930;2022-08-01T05:16:53;20.80;99.90
14099;DHT22;7126;48.458;7.930;2022-08-01T05:19:20;20.80;99.90
14099;DHT22;7126;48.458;7.930;2022-08-01T05:21:46;20.90;99.90
14099;DHT22;7126;48.458;7.930;2022-08-01T05:24:12;20.90;99.90
14099;DHT22;7126;48.458;7.930;2022-08-01T05:26:38;20.80;99.90
14099;DHT22;7126;48.458;7.930;2022-08-01T05:29:04;20.80;99.90
14099;DHT22;7126;48.458;7.930;2022-08-01T05:31:30;20.80;99.90
14099;DHT22;7126;48.458;7.930;2022-08-01T05:34:00;20.80;99.90
14099;DHT22;7126;48.458;7.930;2022-08-01T05:36:25;20.80;99.90
14099;DHT22;7126;48.458;7.930;2022-08-01T05:38:51;20.80;99.90
14099;DHT22;7126;48.458;7.930;2022-08-01T05:41:16;20.80;99.90
14099;DHT22;7126;48.458;7.930;2022-08-01T05:43:42;20.80;99.90
14099;DHT22;7126;48.458;7.930;2022-08-01T05:46:07;20.80;99.90
14099;DHT22;7126;48.458;7.930;2022-08-01T05:48:33;20.90;99.90
14099;DHT22;7126;48.458;7.930;2022-08-01T05:50:58;21.00;99.90
14099;DHT22;7126;48.458;7.930;2022-08-01T05:53:24;21.00;99.90
14099;DHT22;7126;48.458;7.930;2022-08-01T05:55:50;21.00;99.90
14099;DHT22;7126;48.458;7.930;2022-08-01T05:58:15;21.10;99.90
14099;DHT22;7126;48.458;7.930;2022-08-01T06:00:41;21.10;99.90
14099;DHT22;7126;48.458;7.930;2022-08-01T06:03:06;21.10;99.90
14099;DHT22;7126;48.458;7.930;2022-08-01T06:05:32;21.20;99.90
14099;DHT22;7126;48.458;7.930;2022-08-01T06:07:57;21.30;99.90
14099;DHT22;7126;48.458;7.930;2022-08-01T06:10:23;21.40;99.90
14099;DHT22;7126;48.458;7.930;2022-08-01T06:12:49;21.50;99.90
14099;DHT22;7126;48.458;7.930;2022-08-01T06:15:14;21.60;99.90
14099;DHT22;7126;48.458;7.930;2022-08-01T06:17:40;21.60;99.90
14099;DHT22;7126;48.458;7.930;2022-08-01T06:20:07;21.80;99.90
14099;DHT22;7126;48.458;7.930;2022-08-01T06:22:33;21.90;99.90
14099;DHT22;7126;48.458;7.930;2022-08-01T06:24:58;22.00;99.90
14099;DHT22;7126;48.458;7.930;2022-08-01T06:27:24;22.10;99.90
14099;DHT22;7126;48.458;7.930;2022-08-01T06:29:52;22.10;99.90
14099;DHT22;7126;48.458;7.930;2022-08-01T06:32:22;22.30;99.90
14099;DHT22;7126;48.458;7.930;2022-08-01T06:34:48;22.40;99.90
14099;DHT22;7126;48.458;7.930;2022-08-01T06:37:14;22.50;99.90
14099;DHT22;7126;48.458;7.930;2022-08-01T06:39:40;22.60;99.90
14099;DHT22;7126;48.458;7.930;2022-08-01T06:42:05;22.60;99.90
14099;DHT22;7126;48.458;7.930;2022-08-01T06:44:31;22.80;99.90
14099;DHT22;7126;48.458;7.930;2022-08-01T06:46:57;22.90;99.90
14099;DHT22;7126;48.458;7.930;2022-08-01T06:49:24;23.00;99.90
14099;DHT22;7126;48.458;7.930;2022-08-01T06:51:49;23.00;99.90
14099;DHT22;7126;48.458;7.930;2022-08-01T06:54:15;23.10;99.90
14099;DHT22;7126;48.458;7.930;2022-08-01T06:56:41;23.20;99.90
14099;DHT22;7126;48.458;7.930;2022-08-01T06:59:07;23.30;99.90
14099;DHT22;7126;48.458;7.930;2022-08-01T07:01:33;23.40;99.90
14099;DHT22;7126;48.458;7.930;2022-08-01T07:03:58;23.50;99.90
14099;DHT22;7126;48.458;7.930;2022-08-01T07:06:25;23.50;99.90
14099;DHT22;7126;48.458;7.930;2022-08-01T07:08:52;23.60;99.90
14099;DHT22;7126;48.458;7.930;2022-08-01T07:11:18;23.70;99.90
14099;DHT22;7126;48.458;7.930;2022-08-01T07:13:44;23.80;99.90
14099;DHT22;7126;48.458;7.930;2022-08-01T07:16:14;23.90;99.90
14099;DHT22;7126;48.458;7.930;2022-08-01T07:18:40;24.00;99.90
14099;DHT22;7126;48.458;7.930;2022-08-01T07:21:06;24.00;99.90
14099;DHT22;7126;48.458;7.930;2022-08-01T07:23:32;24.10;99.90
14099;DHT22;7126;48.458;7.930;2022-08-01T07:25:57;24.20;99.90
14099;DHT22;7126;48.458;7.930;2022-08-01T07:28:24;24.20;99.90
14099;DHT22;7126;48.458;7.930;2022-08-01T07:30:49;24.30;99.90
14099;DHT22;7126;48.458;7.930;2022-08-01T07:33:15;24.40;99.90
14099;DHT22;7126;48.458;7.930;2022-08-01T07:35:41;24.50;99.90
14099;DHT22;7126;48.458;7.930;2022-08-01T07:38:07;24.50;99.90
14099;DHT22;7126;48.458;7.930;2022-08-01T07:40:33;24.60;99.90
14099;DHT22;7126;48.458;7.930;2022-08-01T07:42:58;24.60;99.90
14099;DHT22;7126;48.458;7.930;2022-08-01T07:45:24;24.50;99.90
14099;DHT22;7126;48.458;7.930;2022-08-01T07:47:50;24.60;99.90
14099;DHT22;7126;48.458;7.930;2022-08-01T07:50:16;24.60;99.90
14099;DHT22;7126;48.458;7.930;2022-08-01T07:52:42;24.70;99.90
14099;DHT22;7126;48.458;7.930;2022-08-01T07:55:09;24.80;99.90
14099;DHT22;7126;48.458;7.930;2022-08-01T07:57:35;24.90;99.90
14099;DHT22;7126;48.458;7.930;2022-08-01T08:00:02;25.00;99.90
14099;DHT22;7126;48.458;7.930;2022-08-01T08:02:28;25.10;99.90
14099;DHT22;7126;48.458;7.930;2022-08-01T08:04:54;25.30;99.90
14099;DHT22;7126;48.458;7.930;2022-08-01T08:07:19;25.30;99.90
14099;DHT22;7126;48.458;7.930;2022-08-01T08:09:45;25.40;99.90
14099;DHT22;7126;48.458;7.930;2022-08-01T08:12:11;25.40;99.90
14099;DHT22;7126;48.458;7.930;2022-08-01T08:14:37;25.40;99.90
14099;DHT22;7126;48.458;7.930;2022-08-01T08:17:03;25.50;99.90
14099;DHT22;7126;48.458;7.930;2022-08-01T08:19:29;25.60;99.90
14099;DHT22;7126;48.458;7.930;2022-08-01T08:21:57;25.70;99.90
14099;DHT22;7126;48.458;7.930;2022-08-01T08:24:23;25.80;99.90
14099;DHT22;7126;48.458;7.930;2022-08-01T08:26:51;25.90;99.90
14099;DHT22;7126;48.458;7.930;2022-08-01T08:29:19;25.90;99.90
14099;DHT22;7126;48.458;7.930;2022-08-01T08:31:45;26.10;99.90
14099;DHT22;7126;48.458;7.930;2022-08-01T08:34:11;26.20;99.90
14099;DHT22;7126;48.458;7.930;2022-08-01T08:36:37;26.30;99.90
14099;DHT22;7126;48.458;7.930;2022-08-01T08:39:03;26.40;99.90
14099;DHT22;7126;48.458;7.930;2022-08-01T08:41:30;26.40;99.90
14099;DHT22;7126;48.458;7.930;2022-08-01T08:43:56;26.50;99.90
14099;DHT22;7126;48.458;7.930;2022-08-01T08:46:26;26.50;99.90
14099;DHT22;7126;48.458;7.930;2022-08-01T08:48:52;26.60;99.90
14099;DHT22;7126;48.458;7.930;2022-08-01T08:51:19;26.70;99.90
14099;DHT22;7126;48.458;7.930;2022-08-01T08:53:46;26.70;99.90
14099;DHT22;7126;48.458;7.930;2022-08-01T08:56:13;26.80;99.90
14099;DHT22;7126;48.458;7.930;2022-08-01T08:58:41;26.90;99.90
14099;DHT22;7126;48.458;7.930;2022-08-01T09:01:08;26.90;99.90
14099;DHT22;7126;48.458;7.930;2022-08-01T09:03:35;27.00;99.90
14099;DHT22;7126;48.458;7.930;2022-08-01T09:06:01;27.10;99.90
14099;DHT22;7126;48.458;7.930;2022-08-01T09:08:27;27.10;99.90
14099;DHT22;7126;48.458;7.930;2022-08-01T09:10:52;27.20;99.90
14099;DHT22;7126;48.458;7.930;2022-08-01T09:13:18;27.30;99.90
14099;DHT22;7126;48.458;7.930;2022-08-01T09:15:46;27.30;99.90
14099;DHT22;7126;48.458;7.930;2022-08-01T09:23:55;27.60;99.90
14099;DHT22;7126;48.458;7.930;2022-08-01T09:26:32;27.60;99.90
14099;DHT22;7126;48.458;7.930;2022-08-01T09:28:59;27.60;99.90
14099;DHT22;7126;48.458;7.930;2022-08-01T09:31:27;27.80;99.90
14099;DHT22;7126;48.458;7.930;2022-08-01T09:33:58;27.80;99.90
14099;DHT22;7126;48.458;7.930;2022-08-01T09:36:43;27.90;99.90
14099;DHT22;7126;48.458;7.930;2022-08-01T09:39:14;27.90;99.90
14099;DHT22;7126;48.458;7.930;2022-08-01T09:41:40;28.00;99.90
14099;DHT22;7126;48.458;7.930;2022-08-01T09:44:06;28.00;99.90
14099;DHT22;7126;48.458;7.930;2022-08-01T09:46:32;28.10;99.90
14099;DHT22;7126;48.458;7.930;2022-08-01T09:49:02;28.20;99.90
14099;DHT22;7126;48.458;7.930;2022-08-01T09:51:34;28.40;99.90
14099;DHT22;7126;48.458;7.930;2022-08-01T09:54:02;28.60;99.90
14099;DHT22;7126;48.458;7.930;2022-08-01T09:56:37;28.70;99.90
14099;DHT22;7126;48.458;7.930;2022-08-01T09:59:03;28.80;99.90
14099;DHT22;7126;48.458;7.930;2022-08-01T10:01:45;28.90;99.90
14099;DHT22;7126;48.458;7.930;2022-08-01T10:04:19;29.00;99.90
14099;DHT22;7126;48.458;7.930;2022-08-01T10:06:47;29.10;99.90
14099;DHT22;7126;48.458;7.930;2022-08-01T10:09:32;29.30;99.90
14099;DHT22;7126;48.458;7.930;2022-08-01T10:11:59;29.50;99.90
14099;DHT22;7126;48.458;7.930;2022-08-01T10:14:26;29.60;99.90
14099;DHT22;7126;48.458;7.930;2022-08-01T10:16:57;29.60;99.90
14099;DHT22;7126;48.458;7.930;2022-08-01T10:19:25;29.60;99.90
14099;DHT22;7126;48.458;7.930;2022-08-01T10:21:52;29.60;99.90
14099;DHT22;7126;48.458;7.930;2022-08-01T10:24:23;29.70;99.90
14099;DHT22;7126;48.458;7.930;2022-08-01T10:26:52;29.70;99.90
14099;DHT22;7126;48.458;7.930;2022-08-01T10:29:20;29.70;99.90
14099;DHT22;7126;48.458;7.930;2022-08-01T10:31:46;29.80;99.90
14099;DHT22;7126;48.458;7.930;2022-08-01T10:34:16;29.90;99.90
14099;DHT22;7126;48.458;7.930;2022-08-01T10:36:45;30.00;99.90
14099;DHT22;7126;48.458;7.930;2022-08-01T10:39:11;30.10;99.90
14099;DHT22;7126;48.458;7.930;2022-08-01T10:41:38;30.20;99.90
14099;DHT22;7126;48.458;7.930;2022-08-01T10:44:07;30.40;99.90
14099;DHT22;7126;48.458;7.930;2022-08-01T10:46:37;30.30;99.90
14099;DHT22;7126;48.458;7.930;2022-08-01T10:49:07;30.30;99.90
14099;DHT22;7126;48.458;7.930;2022-08-01T10:51:37;30.10;99.90
14099;DHT22;7126;48.458;7.930;2022-08-01T10:54:06;29.70;99.90
14099;DHT22;7126;48.458;7.930;2022-08-01T10:56:46;29.50;99.90
14099;DHT22;7126;48.458;7.930;2022-08-01T10:59:26;29.40;99.90
14099;DHT22;7126;48.458;7.930;2022-08-01T11:02:02;29.60;99.90
14099;DHT22;7126;48.458;7.930;2022-08-01T11:07:23;29.30;99.90
14099;DHT22;7126;48.458;7.930;2022-08-01T11:10:10;29.70;99.90
14099;DHT22;7126;48.458;7.930;2022-08-01T11:12:40;30.00;99.90
14099;DHT22;7126;48.458;7.930;2022-08-01T11:17:42;30.50;99.90
14099;DHT22;7126;48.458;7.930;2022-08-01T11:20:18;30.70;99.90
14099;DHT22;7126;48.458;7.930;2022-08-01T11:26:08;31.00;98.90
14099;DHT22;7126;48.458;7.930;2022-08-01T11:30:52;31.20;98.70
14099;DHT22;7126;48.458;7.930;2022-08-01T11:41:13;32.00;96.60
14099;DHT22;7126;48.458;7.930;2022-08-01T11:52:09;32.20;95.50
14099;DHT22;7126;48.458;7.930;2022-08-01T11:54:38;32.30;95.80
14099;DHT22;7126;48.458;7.930;2022-08-01T11:57:09;32.30;95.20
14099;DHT22;7126;48.458;7.930;2022-08-01T11:59:39;32.40;95.70
14099;DHT22;7126;48.458;7.930;2022-08-01T12:02:19;32.50;97.20
14099;DHT22;7126;48.458;7.930;2022-08-01T12:05:12;32.70;95.50
14099;DHT22;7126;48.458;7.930;2022-08-01T12:07:39;32.90;95.00
14099;DHT22;7126;48.458;7.930;2022-08-01T12:10:18;33.00;95.60
14099;DHT22;7126;48.458;7.930;2022-08-01T12:15:18;33.00;94.70
14099;DHT22;7126;48.458;7.930;2022-08-01T12:20:13;33.20;94.50
14099;DHT22;7126;48.458;7.930;2022-08-01T12:22:40;33.20;95.50
14099;DHT22;7126;48.458;7.930;2022-08-01T12:27:32;32.80;96.20
14099;DHT22;7126;48.458;7.930;2022-08-01T12:29:58;32.60;96.30
14099;DHT22;7126;48.458;7.930;2022-08-01T12:32:28;32.20;96.90
14099;DHT22;7126;48.458;7.930;2022-08-01T12:34:57;31.90;97.70
14099;DHT22;7126;48.458;7.930;2022-08-01T12:37:25;32.00;99.00
14099;DHT22;7126;48.458;7.930;2022-08-01T12:39:51;32.40;97.10
14099;DHT22;7126;48.458;7.930;2022-08-01T12:42:17;32.40;97.00
14099;DHT22;7126;48.458;7.930;2022-08-01T12:44:45;32.20;97.50
14099;DHT22;7126;48.458;7.930;2022-08-01T12:47:11;32.30;98.10
14099;DHT22;7126;48.458;7.930;2022-08-01T12:49:38;32.60;96.80
14099;DHT22;7126;48.458;7.930;2022-08-01T12:52:05;32.70;97.00
14099;DHT22;7126;48.458;7.930;2022-08-01T12:57:25;32.80;97.50
14099;DHT22;7126;48.458;7.930;2022-08-01T12:59:53;32.70;97.20
14099;DHT22;7126;48.458;7.930;2022-08-01T13:02:33;32.80;98.10
14099;DHT22;7126;48.458;7.930;2022-08-01T13:04:59;33.00;97.90
14099;DHT22;7126;48.458;7.930;2022-08-01T13:07:37;32.90;96.90
14099;DHT22;7126;48.458;7.930;2022-08-01T13:10:04;32.90;97.50
14099;DHT22;7126;48.458;7.930;2022-08-01T13:12:30;33.00;97.90
14099;DHT22;7126;48.458;7.930;2022-08-01T13:14:56;32.90;97.60
14099;DHT22;7126;48.458;7.930;2022-08-01T13:17:32;32.80;97.30
14099;DHT22;7126;48.458;7.930;2022-08-01T13:19:57;32.80;96.70
14099;DHT22;7126;48.458;7.930;2022-08-01T13:22:35;32.80;95.60
14099;DHT22;7126;48.458;7.930;2022-08-01T13:25:14;32.90;96.30
14099;DHT22;7126;48.458;7.930;2022-08-01T13:27:41;32.90;95.10
14099;DHT22;7126;48.458;7.930;2022-08-01T13:30:11;32.70;95.60
14099;DHT22;7126;48.458;7.930;2022-08-01T13:32:37;32.30;96.30
14099;DHT22;7126;48.458;7.930;2022-08-01T13:35:03;32.00;96.40
14099;DHT22;7126;48.458;7.930;2022-08-01T13:37:30;31.70;97.70
14099;DHT22;7126;48.458;7.930;2022-08-01T13:39:55;31.50;97.70
14099;DHT22;7126;48.458;7.930;2022-08-01T13:42:21;31.40;97.70
14099;DHT22;7126;48.458;7.930;2022-08-01T13:44:46;31.20;97.80
14099;DHT22;7126;48.458;7.930;2022-08-01T13:47:12;31.10;97.50
14099;DHT22;7126;48.458;7.930;2022-08-01T13:49:38;30.90;97.20
14099;DHT22;7126;48.458;7.930;2022-08-01T13:52:04;30.80;98.10
14099;DHT22;7126;48.458;7.930;2022-08-01T13:54:33;30.60;97.70
14099;DHT22;7126;48.458;7.930;2022-08-01T13:56:59;30.60;98.40
14099;DHT22;7126;48.458;7.930;2022-08-01T13:59:24;30.50;98.20
14099;DHT22;7126;48.458;7.930;2022-08-01T14:01:50;30.40;97.90
14099;DHT22;7126;48.458;7.930;2022-08-01T14:04:16;30.30;98.50
14099;DHT22;7126;48.458;7.930;2022-08-01T14:06:41;30.20;98.30
14099;DHT22;7126;48.458;7.930;2022-08-01T14:09:08;30.20;98.50
14099;DHT22;7126;48.458;7.930;2022-08-01T14:11:33;30.10;99.00
14099;DHT22;7126;48.458;7.930;2022-08-01T14:13:59;30.10;99.10
14099;DHT22;7126;48.458;7.930;2022-08-01T14:16:24;30.00;99.40
14099;DHT22;7126;48.458;7.930;2022-08-01T14:18:50;30.00;99.10
14099;DHT22;7126;48.458;7.930;2022-08-01T14:21:16;30.00;98.10
14099;DHT22;7126;48.458;7.930;2022-08-01T14:23:42;29.90;98.40
14099;DHT22;7126;48.458;7.930;2022-08-01T14:26:10;29.90;98.70
14099;DHT22;7126;48.458;7.930;2022-08-01T14:28:37;29.90;98.40
14099;DHT22;7126;48.458;7.930;2022-08-01T14:31:02;29.80;99.20
14099;DHT22;7126;48.458;7.930;2022-08-01T14:33:28;29.80;99.30
14099;DHT22;7126;48.458;7.930;2022-08-01T14:35:55;29.70;99.10
14099;DHT22;7126;48.458;7.930;2022-08-01T14:38:20;29.60;99.70
14099;DHT22;7126;48.458;7.930;2022-08-01T14:40:46;29.60;99.60
14099;DHT22;7126;48.458;7.930;2022-08-01T14:43:20;29.50;99.70
14099;DHT22;7126;48.458;7.930;2022-08-01T14:45:46;29.40;99.90
14099;DHT22;7126;48.458;7.930;2022-08-01T14:48:15;29.40;99.90
14099;DHT22;7126;48.458;7.930;2022-08-01T14:50:40;29.40;99.90
14099;DHT22;7126;48.458;7.930;2022-08-01T14:53:06;29.30;99.90
14099;DHT22;7126;48.458;7.930;2022-08-01T14:55:32;29.20;99.90
14099;DHT22;7126;48.458;7.930;2022-08-01T14:57:57;29.10;99.90
14099;DHT22;7126;48.458;7.930;2022-08-01T15:00:23;29.20;99.90
14099;DHT22;7126;48.458;7.930;2022-08-01T15:02:48;29.20;99.90
14099;DHT22;7126;48.458;7.930;2022-08-01T15:05:14;29.20;99.90
14099;DHT22;7126;48.458;7.930;2022-08-01T15:07:40;29.30;99.90
14099;DHT22;7126;48.458;7.930;2022-08-01T15:10:06;29.30;99.90
14099;DHT22;7126;48.458;7.930;2022-08-01T15:12:32;29.30;99.90
14099;DHT22;7126;48.458;7.930;2022-08-01T15:14:58;29.20;99.90
14099;DHT22;7126;48.458;7.930;2022-08-01T15:17:26;29.20;99.90
14099;DHT22;7126;48.458;7.930;2022-08-01T15:19:57;29.10;99.90
14099;DHT22;7126;48.458;7.930;2022-08-01T15:22:25;29.00;99.90
14099;DHT22;7126;48.458;7.930;2022-08-01T15:24:52;28.90;99.90
14099;DHT22;7126;48.458;7.930;2022-08-01T15:27:19;28.80;99.90
14099;DHT22;7126;48.458;7.930;2022-08-01T15:29:45;28.60;99.90
14099;DHT22;7126;48.458;7.930;2022-08-01T15:32:11;28.50;99.90
14099;DHT22;7126;48.458;7.930;2022-08-01T15:34:37;28.50;99.90
14099;DHT22;7126;48.458;7.930;2022-08-01T15:37:04;28.40;99.90
14099;DHT22;7126;48.458;7.930;2022-08-01T15:39:30;28.30;99.90
14099;DHT22;7126;48.458;7.930;2022-08-01T15:42:00;28.30;99.90
14099;DHT22;7126;48.458;7.930;2022-08-01T15:44:27;28.30;99.90
14099;DHT22;7126;48.458;7.930;2022-08-01T15:46:53;28.20;99.90
14099;DHT22;7126;48.458;7.930;2022-08-01T15:49:18;28.20;99.90
14099;DHT22;7126;48.458;7.930;2022-08-01T15:51:48;28.20;99.90
14099;DHT22;7126;48.458;7.930;2022-08-01T15:54:13;28.20;99.90
14099;DHT22;7126;48.458;7.930;2022-08-01T15:56:39;28.10;99.90
14099;DHT22;7126;48.458;7.930;2022-08-01T15:59:04;28.10;99.90
14099;DHT22;7126;48.458;7.930;2022-08-01T16:01:30;28.10;99.90
14099;DHT22;7126;48.458;7.930;2022-08-01T16:03:57;28.00;99.90
14099;DHT22;7126;48.458;7.930;2022-08-01T16:06:23;28.00;99.90
14099;DHT22;7126;48.458;7.930;2022-08-01T16:08:50;27.90;99.90
14099;DHT22;7126;48.458;7.930;2022-08-01T16:11:16;27.80;99.90
14099;DHT22;7126;48.458;7.930;2022-08-01T16:13:42;27.50;99.90
14099;DHT22;7126;48.458;7.930;2022-08-01T16:16:08;27.20;99.90
14099;DHT22;7126;48.458;7.930;2022-08-01T16:18:34;27.10;99.90
14099;DHT22;7126;48.458;7.930;2022-08-01T16:20:59;26.80;99.90
14099;DHT22;7126;48.458;7.930;2022-08-01T16:23:25;26.70;99.90
14099;DHT22;7126;48.458;7.930;2022-08-01T16:25:51;26.60;99.90
14099;DHT22;7126;48.458;7.930;2022-08-01T16:28:18;26.50;99.90
14099;DHT22;7126;48.458;7.930;2022-08-01T16:30:44;26.40;99.90
14099;DHT22;7126;48.458;7.930;2022-08-01T16:33:10;26.30;99.90
14099;DHT22;7126;48.458;7.930;2022-08-01T16:35:36;26.30;99.90
14099;DHT22;7126;48.458;7.930;2022-08-01T16:38:03;26.40;99.90
14099;DHT22;7126;48.458;7.930;2022-08-01T16:40:28;26.40;99.90
14099;DHT22;7126;48.458;7.930;2022-08-01T16:42:54;26.50;99.90